sensor_id;sensor_type;location;lat;lon;timestamp;P1;durP1;ratioP1;P2;durP2;ratioP2
45940;SDS011;31858;46.008;8.978;2022-09-21T00:01:51;1.55;;;0.93;;
45940;SDS011;31858;46.008;8.978;2022-09-21T00:11:54;5.10;;;1.00;;
45940;SDS011;31858;46.008;8.978;2022-09-21T00:21:56;2.60;;;1.13;;
45940;SDS011;31858;46.008;8.978;2022-09-21T00:31:59;2.38;;;0.93;;
45940;SDS011;31858;46.008;8.978;2022-09-21T00:42:00;1.13;;;1.02;;
45940;SDS011;31858;46.008;8.978;2022-09-21T00:52:04;2.50;;;1.00;;
45940;SDS011;31858;46.008;8.978;2022-09-21T01:02:07;1.38;;;1.00;;
45940;SDS011;31858;46.008;8.978;2022-09-21T01:12:15;2.30;;;1.10;;
45940;SDS011;31858;46.008;8.978;2022-09-21T01:22:29;1.23;;;1.13;;
45940;SDS011;31858;46.008;8.978;2022-09-21T01:32:39;1.63;;;1.17;;
45940;SDS011;31858;46.008;8.978;2022-09-21T01:42:44;6.03;;;1.33;;
45940;SDS011;31858;46.008;8.978;2022-09-21T01:52:51;3.13;;;1.23;;
45940;SDS011;31858;46.008;8.978;2022-09-21T02:02:58;1.80;;;1.20;;
45940;SDS011;31858;46.008;8.978;2022-09-21T02:13:06;2.75;;;1.27;;
45940;SDS011;31858;46.008;8.978;2022-09-21T02:23:13;1.75;;;1.20;;
45940;SDS011;31858;46.008;8.978;2022-09-21T02:33:25;2.78;;;1.20;;
45940;SDS011;31858;46.008;8.978;2022-09-21T02:43:33;2.05;;;1.15;;
45940;SDS011;31858;46.008;8.978;2022-09-21T02:53:40;2.20;;;1.13;;
45940;SDS011;31858;46.008;8.978;2022-09-21T03:03:43;4.88;;;1.30;;
45940;SDS011;31858;46.008;8.978;2022-09-21T03:13:46;1.63;;;0.98;;
45940;SDS011;31858;46.008;8.978;2022-09-21T03:23:48;3.95;;;1.10;;
45940;SDS011;31858;46.008;8.978;2022-09-21T03:33:51;4.82;;;1.02;;
45940;SDS011;31858;46.008;8.978;2022-09-21T03:43:52;3.95;;;1.02;;
45940;SDS011;31858;46.008;8.978;2022-09-21T03:53:55;2.20;;;1.10;;
45940;SDS011;31858;46.008;8.978;2022-09-21T04:03:57;2.35;;;0.90;;
45940;SDS011;31858;46.008;8.978;2022-09-21T04:14:00;2.03;;;1.10;;
45940;SDS011;31858;46.008;8.978;2022-09-21T04:24:02;1.70;;;1.13;;
45940;SDS011;31858;46.008;8.978;2022-09-21T04:34:05;2.40;;;0.93;;
45940;SDS011;31858;46.008;8.978;2022-09-21T04:44:07;2.55;;;1.10;;
45940;SDS011;31858;46.008;8.978;2022-09-21T04:54:10;1.58;;;0.80;;
45940;SDS011;31858;46.008;8.978;2022-09-21T05:04:12;4.22;;;1.40;;
45940;SDS011;31858;46.008;8.978;2022-09-21T05:14:15;1.95;;;1.00;;
45940;SDS011;31858;46.008;8.978;2022-09-21T05:24:16;0.93;;;0.82;;
45940;SDS011;31858;46.008;8.978;2022-09-21T05:34:31;2.10;;;1.30;;
45940;SDS011;31858;46.008;8.978;2022-09-21T05:44:45;2.13;;;1.10;;
45940;SDS011;31858;46.008;8.978;2022-09-21T05:54:54;3.10;;;0.98;;
45940;SDS011;31858;46.008;8.978;2022-09-21T06:05:03;4.75;;;1.60;;
45940;SDS011;31858;46.008;8.978;2022-09-21T06:15:13;2.47;;;1.25;;
45940;SDS011;31858;46.008;8.978;2022-09-21T06:25:15;1.77;;;1.15;;
45940;SDS011;31858;46.008;8.978;2022-09-21T06:35:19;1.20;;;1.10;;
45940;SDS011;31858;46.008;8.978;2022-09-21T06:45:20;3.05;;;1.30;;
45940;SDS011;31858;46.008;8.978;2022-09-21T06:55:23;1.98;;;1.40;;
45940;SDS011;31858;46.008;8.978;2022-09-21T07:05:25;3.97;;;1.33;;
45940;SDS011;31858;46.008;8.978;2022-09-21T07:15:28;4.10;;;1.15;;
45940;SDS011;31858;46.008;8.978;2022-09-21T07:25:30;1.55;;;1.20;;
45940;SDS011;31858;46.008;8.978;2022-09-21T07:35:33;4.88;;;1.10;;
45940;SDS011;31858;46.008;8.978;2022-09-21T07:45:35;2.80;;;1.30;;
45940;SDS011;31858;46.008;8.978;2022-09-21T07:55:38;1.23;;;1.13;;
45940;SDS011;31858;46.008;8.978;2022-09-21T08:05:40;1.65;;;1.33;;
45940;SDS011;31858;46.008;8.978;2022-09-21T08:15:43;10.52;;;2.00;;
45940;SDS011;31858;46.008;8.978;2022-09-21T08:25:46;3.05;;;1.60;;
45940;SDS011;31858;46.008;8.978;2022-09-21T08:35:52;1.90;;;1.50;;
45940;SDS011;31858;46.008;8.978;2022-09-21T08:45:54;2.05;;;1.45;;
45940;SDS011;31858;46.008;8.978;2022-09-21T08:56:00;2.10;;;1.60;;
45940;SDS011;31858;46.008;8.978;2022-09-21T09:06:04;4.53;;;1.67;;
45940;SDS011;31858;46.008;8.978;2022-09-21T09:16:17;1.90;;;1.42;;
45940;SDS011;31858;46.008;8.978;2022-09-21T09:26:31;4.90;;;1.45;;
45940;SDS011;31858;46.008;8.978;2022-09-21T09:36:43;2.13;;;1.45;;
45940;SDS011;31858;46.008;8.978;2022-09-21T09:46:48;2.92;;;1.17;;
45940;SDS011;31858;46.008;8.978;2022-09-21T09:57:02;3.65;;;1.02;;
45940;SDS011;31858;46.008;8.978;2022-09-21T10:07:04;2.95;;;1.30;;
45940;SDS011;31858;46.008;8.978;2022-09-21T10:17:07;3.08;;;1.58;;
45940;SDS011;31858;46.008;8.978;2022-09-21T10:27:18;1.63;;;1.27;;
45940;SDS011;31858;46.008;8.978;2022-09-21T10:37:27;2.30;;;1.63;;
45940;SDS011;31858;46.008;8.978;2022-09-21T10:47:31;3.58;;;1.63;;
45940;SDS011;31858;46.008;8.978;2022-09-21T10:57:38;3.85;;;2.30;;
45940;SDS011;31858;46.008;8.978;2022-09-21T11:07:43;3.78;;;2.80;;
45940;SDS011;31858;46.008;8.978;2022-09-21T11:17:53;3.17;;;1.75;;
45940;SDS011;31858;46.008;8.978;2022-09-21T11:28:03;3.42;;;2.22;;
45940;SDS011;31858;46.008;8.978;2022-09-21T11:38:20;4.05;;;2.10;;
45940;SDS011;31858;46.008;8.978;2022-09-21T11:48:36;3.20;;;2.13;;
45940;SDS011;31858;46.008;8.978;2022-09-21T11:58:52;4.88;;;1.80;;
45940;SDS011;31858;46.008;8.978;2022-09-21T12:09:19;4.20;;;2.15;;
45940;SDS011;31858;46.008;8.978;2022-09-21T12:19:37;2.80;;;1.77;;
45940;SDS011;31858;46.008;8.978;2022-09-21T12:29:46;3.22;;;1.98;;
45940;SDS011;31858;46.008;8.978;2022-09-21T12:39:54;3.03;;;1.50;;
45940;SDS011;31858;46.008;8.978;2022-09-21T12:50:02;5.15;;;2.78;;
45940;SDS011;31858;46.008;8.978;2022-09-21T13:00:12;6.38;;;2.35;;
45940;SDS011;31858;46.008;8.978;2022-09-21T13:10:18;5.38;;;2.35;;
45940;SDS011;31858;46.008;8.978;2022-09-21T13:20:24;4.10;;;2.42;;
45940;SDS011;31858;46.008;8.978;2022-09-21T13:30:28;6.82;;;2.15;;
45940;SDS011;31858;46.008;8.978;2022-09-21T13:40:33;3.55;;;1.75;;
45940;SDS011;31858;46.008;8.978;2022-09-21T13:50:37;3.97;;;1.60;;
45940;SDS011;31858;46.008;8.978;2022-09-21T14:00:49;3.45;;;1.65;;
45940;SDS011;31858;46.008;8.978;2022-09-21T14:10:53;2.22;;;1.63;;
45940;SDS011;31858;46.008;8.978;2022-09-21T14:21:09;1.83;;;1.50;;
45940;SDS011;31858;46.008;8.978;2022-09-21T14:31:17;3.33;;;1.80;;
45940;SDS011;31858;46.008;8.978;2022-09-21T14:41:24;8.77;;;1.60;;
45940;SDS011;31858;46.008;8.978;2022-09-21T14:51:35;2.35;;;1.50;;
45940;SDS011;31858;46.008;8.978;2022-09-21T15:01:54;1.80;;;1.52;;
45940;SDS011;31858;46.008;8.978;2022-09-21T15:12:00;3.20;;;1.42;;
45940;SDS011;31858;46.008;8.978;2022-09-21T15:22:14;5.68;;;1.58;;
45940;SDS011;31858;46.008;8.978;2022-09-21T15:32:22;2.75;;;1.70;;
45940;SDS011;31858;46.008;8.978;2022-09-21T15:42:37;1.90;;;1.58;;
45940;SDS011;31858;46.008;8.978;2022-09-21T15:52:59;3.28;;;1.45;;
45940;SDS011;31858;46.008;8.978;2022-09-21T16:03:06;5.13;;;1.17;;
45940;SDS011;31858;46.008;8.978;2022-09-21T16:13:18;2.88;;;1.50;;
45940;SDS011;31858;46.008;8.978;2022-09-21T16:23:41;1.95;;;1.73;;
45940;SDS011;31858;46.008;8.978;2022-09-21T16:33:55;2.83;;;1.60;;
45940;SDS011;31858;46.008;8.978;2022-09-21T16:44:02;3.97;;;1.90;;
45940;SDS011;31858;46.008;8.978;2022-09-21T16:54:04;2.60;;;1.63;;
45940;SDS011;31858;46.008;8.978;2022-09-21T17:04:09;2.55;;;1.40;;
45940;SDS011;31858;46.008;8.978;2022-09-21T17:14:12;4.00;;;1.50;;
45940;SDS011;31858;46.008;8.978;2022-09-21T17:24:16;1.55;;;1.40;;
45940;SDS011;31858;46.008;8.978;2022-09-21T17:34:18;3.03;;;1.40;;
45940;SDS011;31858;46.008;8.978;2022-09-21T17:44:27;1.58;;;1.45;;
45940;SDS011;31858;46.008;8.978;2022-09-21T17:54:54;2.53;;;1.40;;
45940;SDS011;31858;46.008;8.978;2022-09-21T18:04:59;4.78;;;1.60;;
45940;SDS011;31858;46.008;8.978;2022-09-21T18:15:07;1.90;;;1.80;;
45940;SDS011;31858;46.008;8.978;2022-09-21T18:25:20;5.18;;;1.63;;
45940;SDS011;31858;46.008;8.978;2022-09-21T18:35:31;5.53;;;1.93;;
45940;SDS011;31858;46.008;8.978;2022-09-21T18:45:43;7.22;;;2.85;;
45940;SDS011;31858;46.008;8.978;2022-09-21T18:55:48;7.80;;;3.30;;
45940;SDS011;31858;46.008;8.978;2022-09-21T19:05:55;5.53;;;3.53;;
45940;SDS011;31858;46.008;8.978;2022-09-21T19:16:12;3.58;;;2.55;;
45940;SDS011;31858;46.008;8.978;2022-09-21T19:26:26;3.50;;;2.20;;
45940;SDS011;31858;46.008;8.978;2022-09-21T19:36:32;2.28;;;2.03;;
45940;SDS011;31858;46.008;8.978;2022-09-21T19:46:36;6.57;;;2.30;;
45940;SDS011;31858;46.008;8.978;2022-09-21T19:56:47;2.20;;;2.00;;
45940;SDS011;31858;46.008;8.978;2022-09-21T20:07:12;3.83;;;2.13;;
45940;SDS011;31858;46.008;8.978;2022-09-21T20:17:22;1.63;;;1.48;;
45940;SDS011;31858;46.008;8.978;2022-09-21T20:27:31;3.75;;;1.83;;
45940;SDS011;31858;46.008;8.978;2022-09-21T20:37:35;5.47;;;2.00;;
45940;SDS011;31858;46.008;8.978;2022-09-21T20:47:38;3.13;;;2.20;;
45940;SDS011;31858;46.008;8.978;2022-09-21T20:57:40;3.30;;;1.80;;
45940;SDS011;31858;46.008;8.978;2022-09-21T21:07:43;2.40;;;1.60;;
45940;SDS011;31858;46.008;8.978;2022-09-21T21:17:45;3.15;;;2.30;;
45940;SDS011;31858;46.008;8.978;2022-09-21T21:27:48;5.80;;;2.20;;
45940;SDS011;31858;46.008;8.978;2022-09-21T21:37:50;2.55;;;2.33;;
45940;SDS011;31858;46.008;8.978;2022-09-21T21:47:54;4.50;;;2.00;;
45940;SDS011;31858;46.008;8.978;2022-09-21T21:57:55;2.33;;;1.98;;
45940;SDS011;31858;46.008;8.978;2022-09-21T22:07:58;2.92;;;2.17;;
45940;SDS011;31858;46.008;8.978;2022-09-21T22:18:00;2.53;;;2.00;;
45940;SDS011;31858;46.008;8.978;2022-09-21T22:28:03;2.80;;;1.55;;
45940;SDS011;31858;46.008;8.978;2022-09-21T22:38:05;4.55;;;1.77;;
45940;SDS011;31858;46.008;8.978;2022-09-21T22:48:12;3.50;;;2.10;;
45940;SDS011;31858;46.008;8.978;2022-09-21T22:58:13;6.28;;;2.28;;
45940;SDS011;31858;46.008;8.978;2022-09-21T23:08:16;3.70;;;2.10;;
45940;SDS011;31858;46.008;8.978;2022-09-21T23:18:18;4.57;;;1.95;;
45940;SDS011;31858;46.008;8.978;2022-09-21T23:28:21;2.63;;;1.98;;
45940;SDS011;31858;46.008;8.978;2022-09-21T23:38:23;5.28;;;1.98;;
45940;SDS011;31858;46.008;8.978;2022-09-21T23:48:27;5.70;;;1.90;;
45940;SDS011;31858;46.008;8.978;2022-09-21T23:58:29;2.25;;;1.88;;
